Time;durP1;ratioP1;P1;durP2;ratioP2;P2;SDS_P1;SDS_P2;PMS_P1;PMS_P2;Temp;Humidity;BMP_temperature;BMP_pressure;BME280_temperature;BME280_humidity;BME280_pressure;Samples;Min_cycle;Max_cycle;Signal;HPM_P1;HPM_P2
2021/07/05 00:03:19;;;;;;;17.50;10.63;;;;;;;15.68;68.42;99581.37;2119445;82;20999;-70
2021/07/05 00:06:20;;;;;;;14.83;11.00;;;;;;;15.59;68.73;99581.27;2120515;82;21018;-68
2021/07/05 00:09:22;;;;;;;11.80;10.18;;;;;;;15.45;68.87;99573.81;2121192;82;21435;-68
2021/07/05 00:12:23;;;;;;;12.75;10.60;;;;;;;15.37;69.08;99577.23;2116936;82;21584;-71
2021/07/05 00:15:30;;;;;;;12.63;9.95;;;;;;;15.35;69.10;99577.98;2117636;82;20995;-67
2021/07/05 00:18:31;;;;;;;13.53;9.88;;;;;;;15.36;69.17;99583.11;2117561;82;21524;-68
2021/07/05 00:21:33;;;;;;;13.98;10.18;;;;;;;15.35;69.21;99583.33;2118074;82;20991;-67
2021/07/05 00:24:35;;;;;;;17.02;10.85;;;;;;;15.32;69.39;99577.08;2119056;82;21117;-67
2021/07/05 00:27:36;;;;;;;15.18;11.73;;;;;;;15.26;69.35;99576.06;2115538;82;21486;-67
2021/07/05 00:30:39;;;;;;;13.83;10.23;;;;;;;15.23;69.49;99579.13;2115892;82;21015;-67
2021/07/05 00:33:41;;;;;;;11.90;10.13;;;;;;;15.21;69.65;99571.34;2115218;83;20987;-67
2021/07/05 00:36:42;;;;;;;16.32;10.32;;;;;;;15.19;69.60;99574.73;2117958;82;21465;-71
2021/07/05 00:39:43;;;;;;;11.10;9.85;;;;;;;15.17;69.59;99570.09;2115512;82;20972;-67
2021/07/05 00:42:46;;;;;;;13.25;9.70;;;;;;;15.16;69.65;99568.98;2117863;82;21455;-70
2021/07/05 00:45:48;;;;;;;13.15;9.53;;;;;;;15.11;69.44;99573.61;2117602;82;20995;-68
2021/07/05 00:48:51;;;;;;;14.50;10.70;;;;;;;15.09;69.56;99569.02;2115043;82;21458;-67
2021/07/05 00:51:53;;;;;;;14.35;10.08;;;;;;;15.06;69.81;99569.93;2116255;82;21058;-69
2021/07/05 00:54:55;;;;;;;15.98;10.18;;;;;;;14.98;70.10;99570.99;2114144;82;21058;-67
2021/07/05 00:57:57;;;;;;;12.40;10.13;;;;;;;14.92;69.82;99566.45;2115795;83;22521;-68
2021/07/05 01:00:59;;;;;;;13.65;9.95;;;;;;;14.92;69.94;99563.79;2114720;82;22136;-67
2021/07/05 01:04:00;;;;;;;13.32;10.55;;;;;;;14.88;70.18;99563.91;2112153;83;21034;-68
2021/07/05 01:07:02;;;;;;;13.45;10.50;;;;;;;14.77;70.39;99564.02;2110186;83;20973;-68
2021/07/05 01:10:06;;;;;;;13.98;9.75;;;;;;;14.61;70.53;99574.61;2109765;83;21592;-71
2021/07/05 01:13:09;;;;;;;12.60;9.08;;;;;;;14.57;70.62;99569.38;2110625;83;20980;-67
2021/07/05 01:16:11;;;;;;;11.60;9.48;;;;;;;14.55;70.38;99579.44;2110488;83;21030;-67
2021/07/05 01:19:12;;;;;;;17.85;9.33;;;;;;;14.53;70.47;99571.65;2112036;83;21065;-67
2021/07/05 01:22:15;;;;;;;12.63;9.20;;;;;;;14.54;70.46;99571.13;2108073;83;21033;-69
2021/07/05 01:25:22;;;;;;;10.65;8.43;;;;;;;14.57;70.55;99572.87;2114629;83;21145;-67
2021/07/05 01:28:24;;;;;;;11.90;9.30;;;;;;;14.59;70.44;99570.52;2115389;83;21073;-70
2021/07/05 01:31:26;;;;;;;13.15;9.80;;;;;;;14.60;70.45;99575.64;2114003;83;21066;-68
2021/07/05 01:34:28;;;;;;;14.43;9.18;;;;;;;14.59;70.54;99579.35;2110760;83;20986;-71
2021/07/05 01:37:29;;;;;;;12.90;9.48;;;;;;;14.52;70.48;99569.98;2111863;83;21051;-67
2021/07/05 01:40:31;;;;;;;9.95;8.33;;;;;;;14.47;70.53;99574.27;2110296;83;21415;-67
2021/07/05 01:43:33;;;;;;;14.68;9.95;;;;;;;14.46;70.64;99571.30;2110412;83;21010;-67
2021/07/05 01:46:34;;;;;;;14.15;9.85;;;;;;;14.43;70.65;99569.05;2112666;83;21098;-67
2021/07/05 01:49:38;;;;;;;10.75;9.63;;;;;;;14.42;70.79;99572.23;2110294;83;21007;-68
2021/07/05 01:52:39;;;;;;;12.15;9.55;;;;;;;14.37;71.10;99567.20;2108438;83;21035;-68
2021/07/05 01:55:42;;;;;;;13.70;10.40;;;;;;;14.26;71.09;99572.11;2111703;83;21047;-68
2021/07/05 01:58:44;;;;;;;13.15;10.63;;;;;;;14.06;71.26;99568.09;2110944;83;21403;-66
2021/07/05 02:01:45;;;;;;;13.80;9.83;;;;;;;13.98;71.69;99567.45;2111935;83;21094;-68
2021/07/05 02:04:48;;;;;;;12.68;9.73;;;;;;;13.99;72.16;99565.91;2115812;82;21117;-69
2021/07/05 02:07:52;;;;;;;12.98;10.63;;;;;;;13.98;71.84;99562.12;2117937;82;20998;-69
2021/07/05 02:10:55;;;;;;;11.18;9.80;;;;;;;13.96;71.65;99564.98;2109160;82;21019;-67
2021/07/05 02:13:56;;;;;;;14.47;11.53;;;;;;;13.98;71.72;99561.60;2115108;82;21683;-67
2021/07/05 02:16:58;;;;;;;12.75;10.25;;;;;;;13.98;72.35;99550.13;2114801;82;21031;-72
2021/07/05 02:20:00;;;;;;;13.32;10.00;;;;;;;13.96;72.24;99550.31;2115853;82;20963;-71
2021/07/05 02:23:05;;;;;;;13.32;10.18;;;;;;;13.98;72.19;99567.45;2111937;82;21186;-72
2021/07/05 02:26:08;;;;;;;16.32;12.73;;;;;;;13.86;72.27;99560.56;2114678;82;21070;-67
2021/07/05 02:29:10;;;;;;;14.63;10.98;;;;;;;13.82;72.58;99557.97;2114616;83;21022;-67
2021/07/05 02:32:12;;;;;;;13.88;11.45;;;;;;;13.77;72.62;99562.59;2120452;82;21003;-67
2021/07/05 02:35:18;;;;;;;17.80;11.38;;;;;;;13.71;72.55;99558.04;2116519;82;21101;-72
2021/07/05 02:38:22;;;;;;;14.60;10.50;;;;;;;13.64;72.55;99565.21;2111802;82;20991;-67
2021/07/05 02:41:24;;;;;;;12.80;8.83;;;;;;;13.61;72.48;99569.09;2117513;82;20975;-67
2021/07/05 02:44:26;;;;;;;15.05;9.95;;;;;;;13.61;72.04;99565.61;2116849;82;21615;-67
2021/07/05 02:47:27;;;;;;;13.95;9.98;;;;;;;13.52;71.96;99566.82;2113198;82;21000;-70
2021/07/05 02:50:29;;;;;;;13.25;9.28;;;;;;;13.53;72.28;99573.78;2106071;82;21000;-67
2021/07/05 02:53:31;;;;;;;17.20;11.40;;;;;;;13.52;72.12;99571.63;2117955;82;21529;-66
2021/07/05 02:56:33;;;;;;;15.78;10.75;;;;;;;13.46;72.12;99572.44;2114651;82;21002;-67
2021/07/05 02:59:35;;;;;;;13.55;10.80;;;;;;;13.49;72.43;99575.18;2110932;82;21053;-67
2021/07/05 03:02:37;;;;;;;9.35;7.95;;;;;;;13.47;72.69;99586.58;2117981;83;21019;-67
2021/07/05 03:05:39;;;;;;;12.03;8.40;;;;;;;13.46;72.40;99585.76;2113879;82;21477;-66
2021/07/05 03:08:40;;;;;;;11.60;9.45;;;;;;;13.43;72.32;99583.46;2118138;82;21070;-68
2021/07/05 03:11:42;;;;;;;11.50;9.33;;;;;;;13.43;72.62;99586.12;2117446;82;22326;-71
2021/07/05 03:14:44;;;;;;;12.30;9.00;;;;;;;13.45;72.67;99595.57;2116298;82;21096;-66
2021/07/05 03:17:47;;;;;;;15.20;9.43;;;;;;;13.49;72.81;99599.17;2112824;82;21047;-68
2021/07/05 03:20:50;;;;;;;13.78;10.38;;;;;;;13.52;72.76;99598.28;2115881;82;21067;-70
2021/07/05 03:23:52;;;;;;;16.02;10.38;;;;;;;13.60;72.75;99595.94;2117945;82;21466;-67
2021/07/05 03:26:55;;;;;;;16.35;10.72;;;;;;;13.68;72.90;99595.77;2114313;83;21066;-68
2021/07/05 03:29:56;;;;;;;12.70;10.70;;;;;;;13.71;72.97;99600.70;2117897;83;21479;-67
2021/07/05 03:32:59;;;;;;;13.25;9.40;;;;;;;13.80;73.06;99602.19;2115021;82;21015;-67
2021/07/05 03:36:00;;;;;;;11.93;9.68;;;;;;;14.07;73.23;99600.39;2115511;82;20966;-67
2021/07/05 03:39:04;;;;;;;15.30;9.48;;;;;;;14.33;73.04;99596.13;2115738;83;21487;-67
2021/07/05 03:42:06;;;;;;;11.28;10.18;;;;;;;14.29;72.74;99597.05;2116523;82;21011;-67
2021/07/05 03:45:10;;;;;;;14.65;11.45;;;;;;;14.48;73.04;99598.63;2115965;83;21082;-67
2021/07/05 03:48:12;;;;;;;13.85;11.25;;;;;;;14.59;72.92;99603.90;2115369;82;21104;-68
2021/07/05 03:51:13;;;;;;;15.28;10.90;;;;;;;14.91;73.04;99601.70;2118711;83;21066;-66
2021/07/05 03:54:16;;;;;;;15.38;10.40;;;;;;;15.20;72.64;99603.60;2114636;82;21097;-67
2021/07/05 03:57:23;;;;;;;15.23;10.75;;;;;;;15.29;72.33;99600.18;2117053;82;20999;-71
2021/07/05 04:00:30;;;;;;;15.55;10.70;;;;;;;15.35;72.12;99606.05;2114114;82;21120;-70
2021/07/05 04:03:32;;;;;;;13.55;11.12;;;;;;;15.56;72.36;99600.92;2115379;83;21108;-67
2021/07/05 04:06:34;;;;;;;11.15;9.95;;;;;;;16.06;72.37;99600.61;2117639;82;20999;-67
2021/07/05 04:09:36;;;;;;;14.55;9.50;;;;;;;16.57;71.87;99598.29;2117371;82;20998;-67
2021/07/05 04:12:38;;;;;;;13.13;9.35;;;;;;;17.03;71.17;99601.12;2118004;82;21038;-67
2021/07/05 04:15:41;;;;;;;10.82;9.08;;;;;;;17.36;70.57;99605.30;2116016;83;21463;-68
2021/07/05 04:18:43;;;;;;;10.05;8.48;;;;;;;17.68;70.17;99614.02;2116116;83;21069;-67
2021/07/05 04:21:44;;;;;;;12.40;10.00;;;;;;;18.02;69.72;99618.96;2114110;82;21041;-67
2021/07/05 04:24:47;;;;;;;13.93;10.63;;;;;;;18.39;69.55;99615.66;2118527;82;21007;-69
2021/07/05 04:27:49;;;;;;;11.97;9.35;;;;;;;18.89;69.09;99615.80;2114183;82;21014;-69
2021/07/05 04:30:51;;;;;;;13.08;10.08;;;;;;;19.48;68.67;99612.53;2116910;83;21047;-69
2021/07/05 04:33:53;;;;;;;13.35;9.90;;;;;;;20.10;67.76;99619.95;2115759;82;22781;-69
2021/07/05 04:36:57;;;;;;;21.37;11.10;;;;;;;20.52;66.99;99611.00;2116352;82;21050;-68
2021/07/05 04:39:59;;;;;;;15.43;10.95;;;;;;;20.98;66.04;99603.67;2115793;82;21036;-71
2021/07/05 04:43:02;;;;;;;13.32;11.20;;;;;;;21.21;65.17;99612.63;2115004;82;21031;-68
2021/07/05 04:46:05;;;;;;;12.55;11.25;;;;;;;21.43;64.35;99608.09;2115688;82;21129;-67
2021/07/05 04:49:07;;;;;;;12.53;10.15;;;;;;;21.77;63.96;99603.11;2116543;82;21037;-66
2021/07/05 04:52:09;;;;;;;12.43;10.38;;;;;;;22.11;63.49;99602.38;2115018;82;22017;-66
2021/07/05 04:55:15;;;;;;;18.23;10.03;;;;;;;22.42;62.77;99604.05;2117789;82;21097;-66
2021/07/05 04:58:18;;;;;;;12.13;9.75;;;;;;;22.63;62.36;99598.27;2116152;82;21081;-67
2021/07/05 05:01:20;;;;;;;14.00;10.18;;;;;;;22.97;61.83;99594.20;2113211;82;21053;-67
2021/07/05 05:04:21;;;;;;;11.22;10.00;;;;;;;23.21;61.01;99586.50;2112766;83;21051;-66
2021/07/05 05:07:23;;;;;;;11.95;10.10;;;;;;;23.48;60.45;99582.81;2110460;83;21034;-69
2021/07/05 05:10:28;;;;;;;14.28;9.35;;;;;;;23.89;60.34;99582.45;2112079;83;21097;-66
2021/07/05 05:13:29;;;;;;;13.68;9.73;;;;;;;24.46;59.86;99578.48;2109818;83;21121;-66
2021/07/05 05:16:31;;;;;;;10.00;8.95;;;;;;;24.86;59.06;99582.23;2109574;83;21647;-69
2021/07/05 05:19:33;;;;;;;13.95;8.85;;;;;;;25.18;58.28;99591.44;2114447;83;20952;-66
2021/07/05 05:22:35;;;;;;;10.50;9.38;;;;;;;25.41;57.28;99592.16;2109400;83;20971;-66
2021/07/05 05:25:38;;;;;;;10.38;9.38;;;;;;;25.58;56.88;99592.37;2112740;83;21086;-66
2021/07/05 05:28:40;;;;;;;9.70;8.70;;;;;;;25.66;56.17;99587.16;2112881;83;21104;-66
2021/07/05 05:31:41;;;;;;;11.55;9.63;;;;;;;26.03;56.00;99586.45;2112529;83;21609;-66
2021/07/05 05:34:43;;;;;;;12.13;9.40;;;;;;;26.51;55.52;99579.86;2111713;83;21011;-69
2021/07/05 05:37:46;;;;;;;9.80;8.80;;;;;;;26.78;54.71;99580.16;2109295;83;22309;-66
2021/07/05 05:40:47;;;;;;;9.58;7.92;;;;;;;27.10;54.15;99577.92;2111412;83;21118;-67
2021/07/05 05:43:49;;;;;;;9.88;8.63;;;;;;;27.43;53.61;99570.20;2112344;83;21009;-67
2021/07/05 05:46:50;;;;;;;9.28;8.38;;;;;;;27.67;52.80;99574.23;2110034;83;20984;-69
2021/07/05 05:49:52;;;;;;;10.13;8.38;;;;;;;27.68;51.92;99571.79;2111311;83;20975;-67
2021/07/05 05:52:54;;;;;;;13.03;8.55;;;;;;;27.69;51.54;99578.05;2111957;83;21132;-67
2021/07/05 05:55:58;;;;;;;11.03;8.40;;;;;;;27.76;50.95;99570.86;2110282;83;20994;-67
2021/07/05 05:59:06;;;;;;;9.78;8.90;;;;;;;27.82;50.94;99571.07;2111240;83;21090;-69
2021/07/05 06:02:07;;;;;;;10.13;8.48;;;;;;;27.96;49.62;99576.07;2110958;83;21053;-70
2021/07/05 06:05:10;;;;;;;9.10;7.70;;;;;;;28.00;49.77;99577.64;2116174;82;21471;-66
2021/07/05 06:08:11;;;;;;;12.30;9.05;;;;;;;28.05;49.66;99570.76;2115177;83;20967;-70
2021/07/05 06:11:13;;;;;;;8.88;8.05;;;;;;;28.00;49.01;99571.63;2115167;82;20978;-69
2021/07/05 06:14:14;;;;;;;10.40;8.40;;;;;;;27.84;49.07;99567.50;2114596;82;21526;-69
2021/07/05 06:17:16;;;;;;;10.72;8.10;;;;;;;27.81;49.49;99572.19;2117084;82;21531;-68
2021/07/05 06:20:19;;;;;;;10.72;7.65;;;;;;;27.94;49.09;99573.63;2116145;82;21622;-70
2021/07/05 06:23:28;;;;;;;9.40;8.50;;;;;;;28.05;47.96;99570.20;2113995;82;21077;-68
2021/07/05 06:26:29;;;;;;;9.78;8.30;;;;;;;27.93;48.42;99569.81;2118701;82;20995;-68
2021/07/05 06:29:31;;;;;;;8.03;7.22;;;;;;;28.29;48.47;99576.90;2113934;82;21015;-69
2021/07/05 06:32:33;;;;;;;9.60;8.70;;;;;;;28.66;48.40;99573.05;2118116;82;21867;-69
2021/07/05 06:35:35;;;;;;;9.95;8.95;;;;;;;28.93;47.43;99575.83;2116230;82;21465;-67
2021/07/05 06:38:36;;;;;;;10.80;9.70;;;;;;;28.92;47.25;99580.22;2114871;82;21042;-70
2021/07/05 06:41:38;;;;;;;10.38;9.38;;;;;;;29.14;47.28;99582.29;2118573;83;21026;-67
2021/07/05 06:44:40;;;;;;;9.50;8.43;;;;;;;29.42;46.83;99574.33;2114656;82;21057;-68
2021/07/05 06:47:41;;;;;;;10.28;7.85;;;;;;;29.54;46.58;99570.27;2116241;82;21142;-67
2021/07/05 06:50:43;;;;;;;9.10;8.30;;;;;;;29.89;46.69;99569.52;2116787;82;21078;-68
2021/07/05 06:53:45;;;;;;;10.53;8.88;;;;;;;30.30;45.90;99576.80;2113214;83;21026;-67
2021/07/05 06:56:47;;;;;;;8.35;7.50;;;;;;;30.28;45.52;99576.30;2114812;82;21184;-66
2021/07/05 06:59:49;;;;;;;8.10;7.30;;;;;;;30.35;45.35;99577.22;2114919;82;21010;-69
2021/07/05 07:02:51;;;;;;;10.82;7.58;;;;;;;30.58;44.83;99564.35;2113157;82;21065;-66
2021/07/05 07:05:53;;;;;;;7.80;7.10;;;;;;;30.66;43.84;99572.34;2103563;83;21030;-65
2021/07/05 07:08:55;;;;;;;7.70;6.95;;;;;;;30.67;43.77;99569.30;2110248;83;21069;-67
2021/07/05 07:11:56;;;;;;;7.95;7.15;;;;;;;30.80;43.77;99578.56;2106997;83;21500;-66
2021/07/05 07:15:00;;;;;;;7.67;6.97;;;;;;;31.20;43.27;99579.41;2110568;83;20960;-66
2021/07/05 07:21:05;;;;;;;8.70;7.80;;;;;;;31.69;42.59;99590.34;2107420;83;21003;-66
2021/07/05 07:24:07;;;;;;;8.33;7.08;;;;;;;31.70;42.65;99584.52;2105362;83;20971;-70
2021/07/05 07:27:08;;;;;;;8.93;6.80;;;;;;;31.96;42.51;99585.70;2106193;83;21125;-67
2021/07/05 07:30:13;;;;;;;9.80;6.92;;;;;;;31.88;41.15;99585.38;2106617;83;21105;-65
2021/07/05 07:33:16;;;;;;;6.85;6.17;;;;;;;31.75;41.63;99581.41;2105731;83;21034;-67
2021/07/05 07:36:19;;;;;;;11.97;6.42;;;;;;;31.80;41.05;99590.28;2106358;83;21034;-66
2021/07/05 07:39:24;;;;;;;8.98;6.75;;;;;;;31.91;40.64;99589.44;2102474;83;21556;-67
2021/07/05 07:42:24;;;;;;;6.15;5.17;;;;;;;31.96;40.29;99588.45;2105304;83;20991;-67
2021/07/05 07:45:26;;;;;;;6.40;5.65;;;;;;;32.01;40.62;99585.55;2104876;83;21135;-67
2021/07/05 07:48:27;;;;;;;9.85;5.80;;;;;;;32.15;38.99;99584.25;2107056;83;20995;-66
2021/07/05 07:51:31;;;;;;;6.25;5.58;;;;;;;31.80;39.03;99570.28;2106427;83;21052;-66
2021/07/05 07:54:33;;;;;;;9.13;5.55;;;;;;;31.87;39.61;99577.45;2103218;83;21121;-66
2021/07/05 07:57:36;;;;;;;6.00;5.40;;;;;;;32.07;39.03;99575.48;2106089;83;21140;-66
2021/07/05 08:00:37;;;;;;;6.90;4.78;;;;;;;32.06;37.69;99576.59;2108360;83;21053;-66
2021/07/05 08:03:39;;;;;;;6.08;5.47;;;;;;;32.08;38.85;99575.72;2107653;83;21440;-67
2021/07/05 08:06:42;;;;;;;5.85;5.25;;;;;;;32.35;38.47;99565.50;2112500;83;21596;-67
2021/07/05 08:09:43;;;;;;;6.47;5.97;;;;;;;32.38;38.29;99562.11;2108278;83;20971;-68
2021/07/05 08:12:46;;;;;;;6.05;5.45;;;;;;;31.89;37.52;99552.69;2110560;83;20999;-66
2021/07/05 08:15:48;;;;;;;6.00;5.20;;;;;;;31.58;38.31;99552.02;2115113;83;21124;-66
2021/07/05 08:18:50;;;;;;;5.53;5.03;;;;;;;31.49;38.10;99550.08;2112980;83;21495;-66
2021/07/05 08:21:52;;;;;;;5.17;4.67;;;;;;;31.43;37.28;99547.25;2111578;83;21533;-66
2021/07/05 08:24:55;;;;;;;6.80;5.28;;;;;;;31.16;37.43;99555.68;2111078;83;21051;-66
2021/07/05 08:27:58;;;;;;;5.87;5.10;;;;;;;31.12;37.49;99556.89;2088319;83;21011;-66
2021/07/05 08:31:05;;;;;;;6.75;4.78;;;;;;;31.29;37.38;99556.70;2108767;83;21008;-67
2021/07/05 08:34:06;;;;;;;5.92;4.60;;;;;;;31.70;37.33;99559.84;2109118;83;22096;-66
2021/07/05 08:37:08;;;;;;;7.72;5.50;;;;;;;31.45;36.68;99555.97;2109899;83;21549;-68
2021/07/05 08:40:12;;;;;;;5.50;5.00;;;;;;;31.36;35.65;99557.05;2109782;82;21568;-68
2021/07/05 08:43:15;;;;;;;8.23;4.80;;;;;;;31.27;34.93;99565.23;2108219;83;21008;-66
2021/07/05 08:46:21;;;;;;;4.92;4.53;;;;;;;31.18;35.26;99558.36;2108600;83;21056;-65
2021/07/05 08:49:22;;;;;;;4.42;4.03;;;;;;;31.21;35.13;99557.72;2110369;83;21011;-69
2021/07/05 08:52:24;;;;;;;7.92;4.15;;;;;;;31.47;35.07;99553.69;2110688;83;21000;-65
2021/07/05 08:55:28;;;;;;;4.20;3.90;;;;;;;31.89;33.06;99554.05;2113839;83;21081;-67
2021/07/05 08:58:35;;;;;;;5.30;4.12;;;;;;;31.67;32.80;99549.52;2110397;83;20975;-70
2021/07/05 09:01:34;;;;;;;5.17;3.80;;;;;;;31.75;33.44;99549.86;2106041;83;21041;-71
2021/07/05 09:04:35;;;;;;;6.30;4.78;;;;;;;31.31;33.46;99540.72;2105981;83;21141;-66
2021/07/05 09:08:03;;;;;;;5.85;4.40;;;;;;;31.19;32.43;99544.89;2109539;83;21035;-68
2021/07/05 09:11:12;;;;;;;5.33;4.80;;;;;;;31.00;33.52;99534.75;2111448;83;21018;-68
2021/07/05 09:14:22;;;;;;;4.30;3.90;;;;;;;31.14;34.01;99536.84;2089275;83;21097;-68
2021/07/05 09:17:29;;;;;;;5.45;4.62;;;;;;;31.32;34.30;99528.66;2110411;83;21053;-66
2021/07/05 09:20:33;;;;;;;5.42;4.92;;;;;;;31.46;33.98;99537.58;2106819;83;21007;-69
2021/07/05 09:23:36;;;;;;;6.22;4.97;;;;;;;31.44;33.38;99532.97;2111161;83;21021;-68
2021/07/05 09:26:42;;;;;;;5.12;4.72;;;;;;;31.00;32.70;99538.86;2083443;83;21152;-68
2021/07/05 09:29:44;;;;;;;14.68;5.70;;;;;;;30.59;33.82;99546.23;2110800;83;21547;-69
2021/07/05 09:32:46;;;;;;;5.03;4.62;;;;;;;30.71;34.71;99534.69;2109605;83;21120;-67
2021/07/05 09:36:00;;;;;;;5.90;4.83;;;;;;;30.65;34.19;99529.67;2110476;83;21023;-67
2021/07/05 09:39:18;;;;;;;6.87;4.83;;;;;;;30.50;35.01;99533.63;2112544;83;21070;-67
2021/07/05 09:42:23;;;;;;;6.67;4.62;;;;;;;30.53;35.38;99533.00;2110247;83;21007;-67
2021/07/05 09:45:33;;;;;;;5.33;4.30;;;;;;;30.55;34.32;99534.84;2110874;83;21002;-67
2021/07/05 09:48:46;;;;;;;6.08;4.30;;;;;;;30.22;34.31;99537.08;2108257;83;21104;-67
2021/07/05 09:52:25;;;;;;;5.80;4.62;;;;;;;30.03;34.28;99542.13;2109974;83;21608;-68
2021/07/05 09:55:32;;;;;;;5.22;4.80;;;;;;;29.79;34.11;99516.45;2113906;83;21616;-67
2021/07/05 09:58:34;;;;;;;6.45;4.28;;;;;;;29.47;35.45;99532.44;2108829;83;20999;-65
2021/07/05 10:01:42;;;;;;;4.95;4.42;;;;;;;29.39;35.09;99531.23;2112919;83;21045;-67
2021/07/05 10:04:46;;;;;;;4.50;4.10;;;;;;;29.65;35.47;99529.33;2099527;83;20970;-67
2021/07/05 10:08:10;;;;;;;5.28;4.62;;;;;;;30.03;35.84;99534.48;2086625;84;21048;-66
2021/07/05 10:11:12;;;;;;;5.40;3.85;;;;;;;30.44;35.43;99530.75;2085029;84;21527;-67
2021/07/05 10:14:20;;;;;;;4.87;4.37;;;;;;;30.50;35.18;99537.73;2085644;84;21018;-67
2021/07/05 10:17:23;;;;;;;5.28;4.20;;;;;;;30.27;33.70;99533.66;2085526;84;21016;-67
2021/07/05 10:20:29;;;;;;;6.58;4.80;;;;;;;29.87;34.85;99537.56;2087840;84;20984;-68
2021/07/05 10:23:31;;;;;;;5.87;4.47;;;;;;;29.59;35.19;99536.00;2083744;84;21106;-66
2021/07/05 10:26:36;;;;;;;6.10;4.62;;;;;;;29.35;35.21;99538.44;2086798;84;20988;-66
2021/07/05 10:29:41;;;;;;;9.05;5.03;;;;;;;29.25;35.78;99542.73;2088470;84;21578;-65
2021/07/05 10:32:44;;;;;;;6.85;4.78;;;;;;;29.09;35.33;99544.98;2085284;84;20996;-65
2021/07/05 10:35:51;;;;;;;5.17;4.65;;;;;;;28.77;36.41;99558.11;2081920;84;21035;-71
2021/07/05 10:38:57;;;;;;;9.00;4.58;;;;;;;28.67;36.61;99556.95;2089062;84;21117;-72
2021/07/05 10:41:58;;;;;;;6.22;4.83;;;;;;;28.76;36.58;99555.14;2083950;84;21004;-69
2021/07/05 10:45:01;;;;;;;4.97;4.30;;;;;;;28.80;36.44;99561.59;2062574;84;21008;-70
2021/07/05 10:48:02;;;;;;;4.92;4.50;;;;;;;28.74;36.78;99564.17;2087156;84;21665;-70
2021/07/05 10:51:09;;;;;;;5.22;3.98;;;;;;;28.70;37.43;99564.53;2084891;84;21090;-69
2021/07/05 10:54:11;;;;;;;5.22;4.35;;;;;;;28.68;37.54;99565.38;2089169;84;20953;-71
2021/07/05 10:57:19;;;;;;;5.47;4.42;;;;;;;28.70;37.41;99566.70;2090112;84;20975;-72
2021/07/05 11:00:21;;;;;;;5.15;4.60;;;;;;;28.65;38.04;99562.69;2089973;84;21447;-69
2021/07/05 11:03:43;;;;;;;8.48;4.50;;;;;;;28.65;37.41;99568.71;2088040;84;21515;-69
2021/07/05 11:06:46;;;;;;;6.62;4.83;;;;;;;28.62;37.43;99574.22;2090330;84;21098;-70
2021/07/05 11:09:54;;;;;;;5.10;4.62;;;;;;;28.57;37.89;99564.19;2090218;84;21097;-68
2021/07/05 11:13:04;;;;;;;8.20;4.92;;;;;;;28.61;38.11;99571.23;2087333;84;21023;-68
2021/07/05 11:16:08;;;;;;;6.05;5.00;;;;;;;28.65;37.90;99570.08;2061289;84;21035;-68
2021/07/05 11:19:10;;;;;;;5.03;4.53;;;;;;;28.77;38.15;99571.76;2089932;84;21077;-69
2021/07/05 11:22:28;;;;;;;5.37;4.85;;;;;;;28.97;37.78;99567.84;2085952;84;21091;-69
2021/07/05 11:25:29;;;;;;;5.33;4.83;;;;;;;29.17;37.56;99566.13;2086564;84;21590;-70
2021/07/05 11:28:31;;;;;;;5.15;4.65;;;;;;;29.48;37.35;99573.14;2095326;84;21601;-68
2021/07/05 11:31:39;;;;;;;5.17;4.67;;;;;;;29.65;37.88;99568.44;2085936;84;21024;-68
2021/07/05 11:34:47;;;;;;;5.15;4.65;;;;;;;29.79;37.62;99572.50;2084461;84;21528;-70
2021/07/05 11:37:58;;;;;;;5.47;4.97;;;;;;;30.06;37.82;99571.59;2093378;84;21532;-70
2021/07/05 11:41:21;;;;;;;5.80;5.20;;;;;;;30.20;37.75;99571.55;2092615;84;21053;-69
2021/07/05 11:44:45;;;;;;;6.87;4.60;;;;;;;30.34;36.83;99568.21;2086942;84;20964;-69
2021/07/05 11:47:47;;;;;;;5.67;4.80;;;;;;;30.17;36.90;99568.06;2089255;84;20976;-68
2021/07/05 11:50:49;;;;;;;6.60;4.85;;;;;;;30.14;36.92;99572.78;2087800;83;20997;-73
2021/07/05 11:53:58;;;;;;;5.12;4.42;;;;;;;30.26;36.95;99564.84;2090707;84;21582;-69
2021/07/05 11:57:04;;;;;;;3.90;3.60;;;;;;;30.20;36.80;99574.84;2087291;84;21091;-68
2021/07/05 12:00:11;;;;;;;4.92;4.08;;;;;;;29.94;36.15;99564.50;2057286;84;21716;-69
2021/07/05 12:03:15;;;;;;;4.25;3.85;;;;;;;29.68;35.68;99573.28;2091815;84;21012;-69
2021/07/05 12:06:17;;;;;;;4.17;3.85;;;;;;;29.31;35.95;99574.29;2110756;83;21155;-71
2021/07/05 12:09:19;;;;;;;4.58;4.17;;;;;;;29.11;36.02;99574.14;2110624;83;21639;-70
2021/07/05 12:12:23;;;;;;;4.28;3.98;;;;;;;28.98;35.93;99570.28;2090323;83;21545;-75
2021/07/05 12:15:24;;;;;;;4.00;3.70;;;;;;;28.88;36.03;99571.83;2112763;83;21110;-69
2021/07/05 12:18:27;;;;;;;4.30;4.00;;;;;;;28.71;36.23;99564.22;2109654;83;20982;-70
2021/07/05 12:21:38;;;;;;;5.75;3.95;;;;;;;28.63;36.72;99569.56;2112823;83;21963;-71
2021/07/05 12:24:48;;;;;;;8.33;4.10;;;;;;;28.59;36.44;99563.34;2110675;83;21018;-72
2021/07/05 12:27:49;;;;;;;6.58;4.30;;;;;;;28.62;36.79;99561.13;2111154;83;21004;-69
2021/07/05 12:30:51;;;;;;;5.05;4.17;;;;;;;28.66;37.46;99562.13;2113890;83;21506;-69
2021/07/05 12:33:53;;;;;;;6.33;3.75;;;;;;;28.76;36.76;99564.13;2111941;83;21024;-69
2021/07/05 12:36:55;;;;;;;7.33;4.60;;;;;;;28.81;36.82;99565.97;2108994;83;20973;-69
2021/07/05 12:40:01;;;;;;;4.40;4.00;;;;;;;28.85;36.80;99566.97;2112434;83;21080;-70
2021/07/05 12:43:12;;;;;;;5.25;4.40;;;;;;;28.87;36.64;99566.13;2112411;83;21077;-70
2021/07/05 12:46:14;;;;;;;5.10;4.60;;;;;;;28.88;37.18;99569.09;2112510;83;21054;-72
2021/07/05 12:49:16;;;;;;;7.17;4.28;;;;;;;28.84;37.05;99566.73;2110264;83;20974;-73
2021/07/05 12:52:18;;;;;;;4.75;4.35;;;;;;;28.73;37.94;99565.30;2109589;83;20961;-70
2021/07/05 12:55:20;;;;;;;5.80;4.33;;;;;;;28.59;36.79;99571.52;2106872;83;21022;-69
2021/07/05 12:58:49;;;;;;;6.33;4.15;;;;;;;28.42;36.66;99568.55;2112828;83;21077;-70
2021/07/05 13:01:51;;;;;;;5.17;4.27;;;;;;;28.32;36.68;99571.41;2109069;83;20983;-70
2021/07/05 13:05:15;;;;;;;5.20;4.10;;;;;;;28.27;36.27;99565.50;2107901;83;21022;-68
2021/07/05 13:08:18;;;;;;;7.85;4.60;;;;;;;28.25;36.52;99563.61;2113780;83;22551;-68
2021/07/05 13:11:20;;;;;;;9.90;4.33;;;;;;;28.34;37.01;99563.19;2086290;83;21119;-71
2021/07/05 13:14:26;;;;;;;7.05;4.62;;;;;;;28.44;37.25;99567.70;2111133;83;21042;-70
2021/07/05 13:17:33;;;;;;;8.05;4.45;;;;;;;28.52;37.42;99564.83;2109329;83;20991;-70
2021/07/05 13:20:36;;;;;;;5.70;4.45;;;;;;;28.57;37.53;99565.55;2108679;83;21065;-69
2021/07/05 13:23:47;;;;;;;5.80;4.72;;;;;;;28.69;37.50;99568.35;2110767;83;21065;-70
2021/07/05 13:26:59;;;;;;;5.17;4.65;;;;;;;28.66;37.63;99571.69;2107538;83;20952;-68
2021/07/05 13:30:11;;;;;;;6.47;4.70;;;;;;;28.70;37.93;99575.45;2111399;83;20991;-74
2021/07/05 13:33:12;;;;;;;6.33;4.67;;;;;;;28.78;37.97;99572.03;2114052;83;21671;-70
2021/07/05 13:36:17;;;;;;;5.05;4.50;;;;;;;28.73;37.91;99578.94;2113163;83;21086;-70
2021/07/05 13:39:19;;;;;;;6.00;4.60;;;;;;;28.68;37.66;99579.03;2108540;83;21026;-71
2021/07/05 13:42:20;;;;;;;7.12;5.05;;;;;;;28.60;37.65;99580.52;2109827;83;21055;-70
2021/07/05 13:45:26;;;;;;;10.08;4.58;;;;;;;28.43;37.10;99585.17;2110874;83;20986;-74
2021/07/05 13:48:35;;;;;;;9.08;4.97;;;;;;;28.19;37.29;99588.55;2112497;83;21081;-69
2021/07/05 13:51:37;;;;;;;6.60;4.53;;;;;;;28.07;37.66;99587.08;2109635;83;21604;-69
2021/07/05 13:54:40;;;;;;;6.75;4.85;;;;;;;28.02;38.29;99583.06;2109241;83;20967;-68
2021/07/05 13:57:49;;;;;;;4.72;4.35;;;;;;;27.94;38.02;99583.72;2108375;83;20980;-68
2021/07/05 14:00:55;;;;;;;10.95;5.33;;;;;;;27.91;38.32;99583.77;2112017;83;21074;-70
2021/07/05 14:03:59;;;;;;;6.10;4.55;;;;;;;27.90;38.47;99579.95;2108239;83;21023;-69
2021/07/05 14:07:01;;;;;;;6.17;4.83;;;;;;;27.94;38.92;99572.82;2109892;82;21010;-71
2021/07/05 14:10:03;;;;;;;6.30;4.17;;;;;;;28.07;39.19;99576.17;2118553;82;21045;-69
2021/07/05 14:13:07;;;;;;;8.80;4.70;;;;;;;28.00;38.61;99575.72;2117574;82;21042;-69
2021/07/05 14:16:14;;;;;;;9.03;5.05;;;;;;;28.00;39.50;99574.92;2114623;82;21109;-68
2021/07/05 14:19:16;;;;;;;6.90;5.17;;;;;;;28.05;39.26;99569.39;2116582;82;20998;-69
2021/07/05 14:22:19;;;;;;;7.65;5.30;;;;;;;28.07;39.26;99568.52;2111870;82;21068;-69
2021/07/05 14:25:20;;;;;;;12.55;5.20;;;;;;;28.10;39.07;99567.93;2116274;82;21613;-69